createdAt,value
2022-10-06T00:00:52.686Z,17.45
2022-10-06T00:01:52.864Z,17.46
2022-10-06T00:02:52.668Z,17.46
2022-10-06T00:03:52.705Z,17.46
2022-10-06T00:04:52.742Z,17.38
2022-10-06T00:05:52.747Z,17.46
2022-10-06T00:06:52.505Z,17.38
2022-10-06T00:07:52.286Z,17.42
2022-10-06T00:08:52.545Z,17.46
2022-10-06T00:09:52.572Z,17.44
2022-10-06T00:10:52.861Z,17.46
2022-10-06T00:11:52.866Z,17.41
2022-10-06T00:12:52.889Z,17.42
2022-10-06T00:13:52.490Z,17.46
2022-10-06T00:14:52.664Z,17.44
2022-10-06T00:15:53.229Z,17.41
2022-10-06T00:16:53.090Z,17.46
2022-10-06T00:17:52.755Z,17.45
2022-10-06T00:18:52.746Z,17.45
2022-10-06T00:19:53.124Z,17.45
2022-10-06T00:20:52.808Z,17.44
2022-10-06T00:21:52.544Z,17.45
2022-10-06T00:22:53.083Z,17.46
2022-10-06T00:23:52.849Z,17.42
2022-10-06T00:24:52.874Z,17.48
2022-10-06T00:25:52.884Z,17.45
2022-10-06T00:26:53.174Z,17.45
2022-10-06T00:27:52.934Z,17.56
2022-10-06T00:28:53.308Z,17.57
2022-10-06T00:29:53.625Z,17.54
2022-10-06T00:30:53.637Z,17.54
2022-10-06T00:31:53.155Z,17.54
2022-10-06T00:32:53.301Z,17.51
2022-10-06T00:33:53.120Z,17.56
2022-10-06T00:34:53.327Z,17.54
2022-10-06T00:35:53.151Z,17.52
2022-10-06T00:36:53.130Z,17.51
2022-10-06T00:37:53.384Z,17.48
2022-10-06T00:38:53.144Z,17.42
2022-10-06T00:39:53.175Z,17.48
2022-10-06T00:40:53.440Z,17.49
2022-10-06T00:41:53.205Z,17.48
2022-10-06T00:42:53.232Z,17.45
2022-10-06T00:43:53.501Z,17.45
2022-10-06T00:44:53.532Z,17.45
2022-10-06T00:45:53.357Z,17.42
2022-10-06T00:46:53.565Z,17.45
2022-10-06T00:47:53.587Z,17.41
2022-10-06T00:48:53.700Z,17.48
2022-10-06T00:49:53.648Z,17.45
2022-10-06T00:50:53.645Z,17.46
2022-10-06T00:51:53.409Z,17.41
2022-10-06T00:52:53.199Z,17.38
2022-10-06T00:53:53.708Z,17.45
2022-10-06T00:54:53.471Z,17.38
2022-10-06T00:55:53.743Z,17.31
2022-10-06T00:56:53.507Z,17.38
2022-10-06T00:57:53.791Z,17.36
2022-10-06T00:58:53.550Z,17.41
2022-10-06T00:59:53.567Z,17.29
2022-10-06T01:00:53.583Z,17.36
2022-10-06T01:01:54.047Z,17.38
2022-10-06T01:02:53.740Z,17.33
2022-10-06T01:03:53.916Z,17.36
2022-10-06T01:04:53.943Z,17.31
2022-10-06T01:05:53.973Z,17.29
2022-10-06T01:06:53.447Z,17.29
2022-10-06T01:07:53.991Z,17.22
2022-10-06T01:08:53.764Z,17.24
2022-10-06T01:09:53.511Z,17.26
2022-10-06T01:10:53.524Z,17.2
2022-10-06T01:11:54.065Z,17.2
2022-10-06T01:12:54.083Z,17.22
2022-10-06T01:13:54.101Z,17.27
2022-10-06T01:14:54.126Z,17.26
2022-10-06T01:15:54.095Z,17.22
2022-10-06T01:16:54.167Z,17.15
2022-10-06T01:17:54.183Z,17.19
2022-10-06T01:18:54.213Z,17.14
2022-10-06T01:19:54.228Z,17.15
2022-10-06T01:20:54.396Z,17.2
2022-10-06T01:21:54.308Z,17.11
2022-10-06T01:22:54.023Z,17.19
2022-10-06T01:23:54.309Z,17.23
2022-10-06T01:24:54.346Z,17.16
2022-10-06T01:25:54.096Z,17.15
2022-10-06T01:26:54.359Z,17.15
2022-10-06T01:27:54.127Z,17.09
2022-10-06T01:28:54.487Z,17.06
2022-10-06T01:29:54.829Z,17.08
2022-10-06T01:30:54.669Z,17.08
2022-10-06T01:31:54.484Z,17.12
2022-10-06T01:32:54.486Z,17.02
2022-10-06T01:33:54.510Z,17.15
2022-10-06T01:34:54.521Z,17.12
2022-10-06T01:35:54.283Z,17.09
2022-10-06T01:36:54.608Z,17.05
2022-10-06T01:37:54.606Z,17.02
2022-10-06T01:38:54.354Z,16.96
2022-10-06T01:39:54.369Z,17.01
2022-10-06T01:40:54.677Z,17.06
2022-10-06T01:41:54.662Z,16.96
2022-10-06T01:42:54.421Z,17.05
2022-10-06T01:43:54.693Z,16.96
2022-10-06T01:44:54.469Z,16.97
2022-10-06T01:45:54.479Z,16.96
2022-10-06T01:46:55.014Z,16.93
2022-10-06T01:47:54.258Z,16.91
2022-10-06T01:48:54.543Z,16.9
2022-10-06T01:49:54.812Z,16.99
2022-10-06T01:50:54.592Z,17.02
2022-10-06T01:51:54.598Z,16.9
2022-10-06T01:52:54.894Z,16.93
2022-10-06T01:53:54.914Z,16.9
2022-10-06T01:54:54.930Z,16.89
2022-10-06T01:55:54.686Z,16.94
2022-10-06T01:56:54.978Z,16.91
2022-10-06T01:57:54.723Z,16.93
2022-10-06T01:58:54.730Z,16.89
2022-10-06T01:59:59.561Z,16.93
2022-10-06T02:00:54.776Z,16.89
2022-10-06T02:01:55.443Z,16.91
2022-10-06T02:02:54.818Z,16.89
2022-10-06T02:03:54.927Z,16.94
2022-10-06T02:04:54.855Z,16.89
2022-10-06T02:05:55.029Z,16.87
2022-10-06T02:06:55.151Z,16.9
2022-10-06T02:07:54.912Z,16.84
2022-10-06T02:08:55.225Z,16.81
2022-10-06T02:09:54.977Z,16.78
2022-10-06T02:10:55.232Z,16.87
2022-10-06T02:11:54.732Z,16.75
2022-10-06T02:12:55.293Z,16.75
2022-10-06T02:13:54.772Z,16.72
2022-10-06T02:14:55.310Z,16.74
2022-10-06T02:15:55.490Z,16.79
2022-10-06T02:16:55.345Z,16.71
2022-10-06T02:17:55.119Z,16.81
2022-10-06T02:18:55.139Z,16.78
2022-10-06T02:19:55.171Z,16.75
2022-10-06T02:20:55.421Z,16.74
2022-10-06T02:21:55.192Z,16.79
2022-10-06T02:22:55.477Z,16.75
2022-10-06T02:23:55.234Z,16.69
2022-10-06T02:24:55.272Z,16.74
2022-10-06T02:25:55.605Z,16.74
2022-10-06T02:26:55.294Z,16.74
2022-10-06T02:27:55.403Z,16.65
2022-10-06T02:28:55.463Z,16.74
2022-10-06T02:29:55.891Z,16.72
2022-10-06T02:30:55.879Z,16.68
2022-10-06T02:31:55.761Z,16.72
2022-10-06T02:32:55.757Z,16.65
2022-10-06T02:33:55.777Z,16.68
2022-10-06T02:34:55.799Z,16.6
2022-10-06T02:35:55.772Z,16.6
2022-10-06T02:36:55.492Z,16.68
2022-10-06T02:37:55.249Z,16.58
2022-10-06T02:38:55.784Z,16.61
2022-10-06T02:39:55.799Z,16.64
2022-10-06T02:40:55.842Z,16.54
2022-10-06T02:41:55.613Z,16.58
2022-10-06T02:42:55.597Z,16.58
2022-10-06T02:43:55.873Z,16.58
2022-10-06T02:44:55.661Z,16.5
2022-10-06T02:45:55.908Z,16.69
2022-10-06T02:46:55.901Z,16.5
2022-10-06T02:47:55.949Z,16.6
2022-10-06T02:48:55.977Z,16.65
2022-10-06T02:49:55.740Z,16.56
2022-10-06T02:50:55.551Z,16.61
2022-10-06T02:51:55.829Z,16.47
2022-10-06T02:52:56.058Z,16.54
2022-10-06T02:53:56.071Z,16.56
2022-10-06T02:54:56.085Z,16.58
2022-10-06T02:55:55.852Z,16.58
2022-10-06T02:56:56.146Z,16.57
2022-10-06T02:57:56.174Z,16.54
2022-10-06T02:58:55.910Z,16.49
2022-10-06T02:59:56.188Z,16.58
2022-10-06T03:00:55.992Z,16.42
2022-10-06T03:01:56.430Z,16.41
2022-10-06T03:02:56.591Z,16.42
2022-10-06T03:03:56.024Z,16.42
2022-10-06T03:04:56.015Z,16.49
2022-10-06T03:05:56.291Z,16.5
2022-10-06T03:06:56.320Z,16.36
2022-10-06T03:07:56.348Z,16.42
2022-10-06T03:08:56.101Z,16.41
2022-10-06T03:09:56.381Z,16.36
2022-10-06T03:10:56.139Z,16.39
2022-10-06T03:11:56.514Z,16.36
2022-10-06T03:12:56.476Z,16.36
2022-10-06T03:13:56.240Z,16.39
2022-10-06T03:14:56.249Z,16.32
2022-10-06T03:15:56.378Z,16.39
2022-10-06T03:16:56.660Z,16.36
2022-10-06T03:17:56.539Z,16.35
2022-10-06T03:18:56.295Z,16.32
2022-10-06T03:19:56.317Z,16.36
2022-10-06T03:20:56.330Z,16.31
2022-10-06T03:21:56.364Z,16.28
2022-10-06T03:22:56.364Z,16.29
2022-10-06T03:23:56.657Z,16.24
2022-10-06T03:24:56.667Z,16.24
2022-10-06T03:25:56.434Z,16.21
2022-10-06T03:26:56.543Z,16.24
2022-10-06T03:27:56.493Z,16.29
2022-10-06T03:28:56.827Z,16.26
2022-10-06T03:29:56.987Z,16.23
2022-10-06T03:30:56.810Z,16.15
2022-10-06T03:31:56.816Z,16.2
2022-10-06T03:32:56.850Z,16.17
2022-10-06T03:33:56.593Z,16.16
2022-10-06T03:34:57.136Z,16.24
2022-10-06T03:35:56.882Z,16.15
2022-10-06T03:36:56.915Z,16.16
2022-10-06T03:37:56.917Z,16.23
2022-10-06T03:38:56.961Z,16.2
2022-10-06T03:39:56.442Z,16.17
2022-10-06T03:40:56.716Z,16.23
2022-10-06T03:41:56.484Z,16.16
2022-10-06T03:42:56.773Z,16.17
2022-10-06T03:43:56.772Z,16.17
2022-10-06T03:44:57.084Z,16.23
2022-10-06T03:45:57.091Z,16.23
2022-10-06T03:46:57.332Z,16.17
2022-10-06T03:47:57.102Z,16.2
2022-10-06T03:48:56.639Z,16.24
2022-10-06T03:49:57.140Z,16.2
2022-10-06T03:50:57.177Z,16.21
2022-10-06T03:51:57.181Z,16.17
2022-10-06T03:52:56.974Z,16.26
2022-10-06T03:53:57.002Z,16.2
2022-10-06T03:54:57.014Z,16.23
2022-10-06T03:55:57.005Z,16.23
2022-10-06T03:56:57.108Z,16.21
2022-10-06T03:57:57.046Z,16.2
2022-10-06T03:58:57.324Z,16.2
2022-10-06T03:59:57.086Z,16.26
2022-10-06T04:00:57.531Z,16.2
2022-10-06T04:01:57.502Z,16.16
2022-10-06T04:02:57.134Z,16.16
2022-10-06T04:03:57.166Z,16.23
2022-10-06T04:04:57.460Z,16.16
2022-10-06T04:05:57.195Z,16.16
2022-10-06T04:06:57.253Z,16.15
2022-10-06T04:07:57.496Z,16.08
2022-10-06T04:08:57.594Z,16.09
2022-10-06T04:09:57.272Z,16.17
2022-10-06T04:10:57.563Z,16.15
2022-10-06T04:11:57.574Z,16.17
2022-10-06T04:12:57.079Z,16.17
2022-10-06T04:13:57.601Z,16.05
2022-10-06T04:15:02.691Z,16.1
2022-10-06T04:15:57.713Z,16.08
2022-10-06T04:16:57.703Z,16.1
2022-10-06T04:17:57.738Z,16.05
2022-10-06T04:18:57.706Z,16.08
2022-10-06T04:19:57.469Z,16.1
2022-10-06T04:20:57.512Z,16.05
2022-10-06T04:21:57.520Z,16.08
2022-10-06T04:22:57.527Z,16.1
2022-10-06T04:23:57.550Z,16.08
2022-10-06T04:24:57.820Z,16.13
2022-10-06T04:26:00.356Z,16.05
2022-10-06T04:26:57.860Z,16.09
2022-10-06T04:27:57.959Z,16.01
2022-10-06T04:28:57.902Z,16.08
2022-10-06T04:29:58.018Z,16.04
2022-10-06T04:30:57.937Z,15.98
2022-10-06T04:31:57.926Z,15.98
2022-10-06T04:32:58.003Z,15.97
2022-10-06T04:33:57.763Z,16.01
2022-10-06T04:34:58.016Z,16.01
2022-10-06T04:35:57.770Z,15.97
2022-10-06T04:36:57.556Z,15.97
2022-10-06T04:37:57.819Z,16.04
2022-10-06T04:38:58.090Z,15.95
2022-10-06T04:39:57.591Z,16.04
2022-10-06T04:40:58.127Z,15.92
2022-10-06T04:41:58.144Z,15.94
2022-10-06T04:42:57.909Z,15.92
2022-10-06T04:43:58.179Z,16
2022-10-06T04:44:57.687Z,16
2022-10-06T04:45:57.949Z,16.02
2022-10-06T04:46:58.286Z,15.94
2022-10-06T04:47:58.002Z,15.82
2022-10-06T04:48:58.297Z,15.91
2022-10-06T04:49:58.210Z,15.97
2022-10-06T04:50:58.472Z,15.9
2022-10-06T04:51:58.491Z,15.91
2022-10-06T04:52:58.272Z,15.91
2022-10-06T04:53:58.473Z,15.88
2022-10-06T04:54:58.486Z,15.95
2022-10-06T04:55:58.460Z,15.8
2022-10-06T04:56:58.221Z,15.91
2022-10-06T04:57:58.439Z,15.83
2022-10-06T04:58:58.472Z,15.88
2022-10-06T05:00:01.606Z,15.91
2022-10-06T05:00:58.197Z,15.86
2022-10-06T05:01:58.681Z,15.8
2022-10-06T05:02:58.537Z,15.76
2022-10-06T05:03:58.309Z,15.79
2022-10-06T05:04:58.601Z,15.79
2022-10-06T05:05:58.728Z,15.76
2022-10-06T05:06:58.359Z,15.79
2022-10-06T05:07:58.384Z,15.79
2022-10-06T05:08:58.686Z,15.79
2022-10-06T05:09:58.417Z,15.77
2022-10-06T05:10:58.438Z,15.8
2022-10-06T05:11:58.454Z,15.75
2022-10-06T05:12:58.737Z,15.75
2022-10-06T05:13:58.800Z,15.77
2022-10-06T05:14:58.761Z,15.7
2022-10-06T05:15:58.828Z,15.65
2022-10-06T05:16:58.900Z,15.73
2022-10-06T05:17:58.573Z,15.67
2022-10-06T05:18:58.582Z,15.72
2022-10-06T05:19:58.863Z,15.7
2022-10-06T05:21:01.055Z,15.68
2022-10-06T05:21:58.930Z,15.68
2022-10-06T05:22:58.666Z,15.65
2022-10-06T05:23:58.680Z,15.7
2022-10-06T05:24:58.979Z,15.68
2022-10-06T05:25:58.717Z,15.68
2022-10-06T05:27:04.392Z,15.64
2022-10-06T05:27:59.036Z,15.67
2022-10-06T05:28:59.033Z,15.65
2022-10-06T05:29:58.995Z,15.64
2022-10-06T05:30:58.815Z,15.65
2022-10-06T05:31:59.307Z,15.64
2022-10-06T05:32:58.861Z,15.7
2022-10-06T05:33:58.873Z,15.58
2022-10-06T05:34:59.150Z,15.64
2022-10-06T05:35:59.186Z,15.58
2022-10-06T05:36:58.953Z,15.7
2022-10-06T05:37:58.974Z,15.57
2022-10-06T05:38:58.721Z,15.57
2022-10-06T05:39:59.240Z,15.62
2022-10-06T05:40:58.840Z,15.62
2022-10-06T05:41:59.282Z,15.64
2022-10-06T05:42:59.305Z,15.64
2022-10-06T05:43:59.321Z,15.57
2022-10-06T05:44:59.340Z,15.57
2022-10-06T05:45:59.275Z,15.61
2022-10-06T05:46:59.114Z,15.57
2022-10-06T05:47:59.136Z,15.57
2022-10-06T05:48:59.419Z,15.61
2022-10-06T05:49:58.921Z,15.59
2022-10-06T05:50:59.195Z,15.64
2022-10-06T05:51:58.957Z,15.55
2022-10-06T05:52:59.526Z,15.55
2022-10-06T05:53:59.564Z,15.55
2022-10-06T05:54:59.569Z,15.54
2022-10-06T05:55:59.312Z,15.55
2022-10-06T05:56:59.619Z,15.55
2022-10-06T05:57:59.346Z,15.52
2022-10-06T05:58:59.407Z,15.58
2022-10-06T05:59:59.621Z,15.58
2022-10-06T06:00:59.672Z,15.55
2022-10-06T06:02:00.004Z,15.54
2022-10-06T06:02:59.890Z,15.51
2022-10-06T06:03:59.503Z,15.54
2022-10-06T06:04:59.718Z,15.54
2022-10-06T06:05:59.478Z,15.55
2022-10-06T06:06:59.500Z,15.54
2022-10-06T06:07:59.777Z,15.57
2022-10-06T06:08:59.881Z,15.55
2022-10-06T06:09:59.578Z,15.57
2022-10-06T06:10:59.853Z,15.57
2022-10-06T06:11:59.864Z,15.57
2022-10-06T06:12:59.933Z,15.54
2022-10-06T06:13:59.631Z,15.54
2022-10-06T06:14:59.907Z,15.58
2022-10-06T06:15:59.966Z,15.58
2022-10-06T06:17:00.204Z,15.54
2022-10-06T06:17:59.707Z,15.52
2022-10-06T06:18:59.724Z,15.55
2022-10-06T06:20:00.003Z,15.52
2022-10-06T06:20:59.767Z,15.61
2022-10-06T06:22:00.060Z,15.52
2022-10-06T06:22:59.803Z,15.57
2022-10-06T06:23:59.823Z,15.59
2022-10-06T06:25:00.125Z,15.52
2022-10-06T06:26:05.311Z,15.57
2022-10-06T06:27:00.270Z,15.59
2022-10-06T06:28:00.271Z,15.57
2022-10-06T06:29:00.277Z,15.61
2022-10-06T06:30:00.498Z,15.59
2022-10-06T06:31:00.166Z,15.55
2022-10-06T06:32:00.329Z,15.59
2022-10-06T06:32:59.987Z,15.65
2022-10-06T06:34:00.346Z,15.58
2022-10-06T06:34:59.767Z,15.65
2022-10-06T06:36:00.301Z,15.67
2022-10-06T06:37:07.639Z,15.61
2022-10-06T06:38:00.091Z,15.7
2022-10-06T06:39:00.358Z,15.68
2022-10-06T06:40:00.389Z,15.67
2022-10-06T06:41:00.417Z,15.68
2022-10-06T06:42:00.200Z,15.68
2022-10-06T06:43:00.178Z,15.68
2022-10-06T06:44:00.454Z,15.64
2022-10-06T06:45:00.494Z,15.7
2022-10-06T06:46:00.510Z,15.76
2022-10-06T06:47:00.254Z,15.79
2022-10-06T06:48:00.536Z,15.7
2022-10-06T06:49:00.297Z,15.82
2022-10-06T06:50:00.571Z,15.84
2022-10-06T06:51:00.597Z,15.77
2022-10-06T06:52:00.629Z,15.77
2022-10-06T06:53:00.391Z,15.82
2022-10-06T06:54:00.658Z,15.83
2022-10-06T06:55:00.411Z,15.91
2022-10-06T06:56:00.688Z,15.9
2022-10-06T06:57:00.724Z,15.88
2022-10-06T06:58:00.751Z,15.86
2022-10-06T06:59:00.483Z,15.95
2022-10-06T07:00:00.498Z,15.97
2022-10-06T07:01:00.705Z,15.97
2022-10-06T07:02:01.021Z,15.98
2022-10-06T07:03:00.561Z,15.9
2022-10-06T07:04:02.562Z,15.95
2022-10-06T07:05:00.335Z,15.94
2022-10-06T07:06:00.609Z,16.01
2022-10-06T07:07:01.152Z,16
2022-10-06T07:08:00.390Z,16.02
2022-10-06T07:09:00.427Z,15.97
2022-10-06T07:10:00.944Z,16.12
2022-10-06T07:11:00.976Z,16.05
2022-10-06T07:12:00.762Z,16.04
2022-10-06T07:13:01.023Z,16.08
2022-10-06T07:14:00.862Z,16.05
2022-10-06T07:15:00.845Z,16.09
2022-10-06T07:16:01.330Z,16.15
2022-10-06T07:17:00.862Z,16.13
2022-10-06T07:18:00.848Z,16.17
2022-10-06T07:19:01.115Z,16.09
2022-10-06T07:20:00.915Z,16.13
2022-10-06T07:21:00.671Z,16.23
2022-10-06T07:22:01.179Z,16.13
2022-10-06T07:23:01.195Z,16.23
2022-10-06T07:24:00.958Z,16.15
2022-10-06T07:25:01.254Z,16.13
2022-10-06T07:26:00.992Z,16.15
2022-10-06T07:27:00.760Z,16.26
2022-10-06T07:28:00.997Z,16.26
2022-10-06T07:29:01.333Z,16.21
2022-10-06T07:30:01.940Z,16.23
2022-10-06T07:31:01.563Z,16.26
2022-10-06T07:32:01.151Z,16.29
2022-10-06T07:33:01.404Z,16.17
2022-10-06T07:34:01.404Z,16.26
2022-10-06T07:35:01.758Z,16.15
2022-10-06T07:36:01.187Z,16.29
2022-10-06T07:37:06.625Z,16.31
2022-10-06T07:38:01.218Z,16.28
2022-10-06T07:39:01.501Z,16.32
2022-10-06T07:40:01.522Z,16.31
2022-10-06T07:41:31.258Z,16.35
2022-10-06T07:42:01.566Z,16.42
2022-10-06T07:43:01.311Z,16.39
2022-10-06T07:44:04.625Z,16.38
2022-10-06T07:45:01.407Z,16.36
2022-10-06T07:46:01.794Z,16.36
2022-10-06T07:47:01.390Z,16.36
2022-10-06T07:48:01.667Z,16.41
2022-10-06T07:49:01.454Z,16.42
2022-10-06T07:50:01.709Z,16.43
2022-10-06T07:51:01.501Z,16.36
2022-10-06T07:52:01.495Z,16.39
2022-10-06T07:53:01.507Z,16.46
2022-10-06T07:54:01.783Z,16.5
2022-10-06T07:55:01.925Z,16.51
2022-10-06T07:56:01.596Z,16.43
2022-10-06T07:57:01.579Z,16.5
2022-10-06T07:58:01.599Z,16.49
2022-10-06T07:59:01.886Z,16.47
2022-10-06T08:00:07.617Z,16.56
2022-10-06T08:01:01.658Z,16.49
2022-10-06T08:02:02.286Z,16.56
2022-10-06T08:03:01.620Z,16.6
2022-10-06T08:04:01.983Z,16.57
2022-10-06T08:05:02.021Z,16.58
2022-10-06T08:06:01.764Z,16.53
2022-10-06T08:07:02.040Z,16.6
2022-10-06T08:08:02.063Z,16.46
2022-10-06T08:09:02.107Z,16.53
2022-10-06T08:10:02.129Z,16.5
2022-10-06T08:11:05.022Z,16.61
2022-10-06T08:12:02.137Z,16.68
2022-10-06T08:13:02.147Z,16.68
2022-10-06T08:14:02.175Z,16.54
2022-10-06T08:15:08.207Z,16.64
2022-10-06T08:16:02.120Z,16.64
2022-10-06T08:17:02.222Z,16.6
2022-10-06T08:18:02.281Z,16.58
2022-10-06T08:19:02.270Z,16.58
2022-10-06T08:20:02.090Z,16.58
2022-10-06T08:21:02.141Z,16.57
2022-10-06T08:22:07.550Z,16.58
2022-10-06T08:23:02.364Z,16.72
2022-10-06T08:24:01.875Z,16.6
2022-10-06T08:25:10.675Z,16.61
2022-10-06T08:26:02.150Z,16.61
2022-10-06T08:27:02.432Z,16.69
2022-10-06T08:28:02.472Z,16.54
2022-10-06T08:29:02.346Z,16.65
2022-10-06T08:30:02.575Z,16.65
2022-10-06T08:31:02.167Z,16.58
2022-10-06T08:32:02.741Z,16.64
2022-10-06T08:33:02.531Z,16.6
2022-10-06T08:34:02.307Z,16.71
2022-10-06T08:35:02.903Z,16.64
2022-10-06T08:36:02.332Z,16.66
2022-10-06T08:37:24.151Z,16.66
2022-10-06T08:38:02.631Z,16.65
2022-10-06T08:39:02.402Z,16.71
2022-10-06T08:40:02.683Z,16.69
2022-10-06T08:41:02.431Z,16.69
2022-10-06T08:42:02.711Z,16.69
2022-10-06T08:43:02.887Z,16.71
2022-10-06T08:44:02.738Z,16.6
2022-10-06T08:45:02.497Z,16.74
2022-10-06T08:46:02.911Z,16.74
2022-10-06T08:47:02.864Z,16.75
2022-10-06T08:48:02.602Z,16.76
2022-10-06T08:49:02.901Z,16.74
2022-10-06T08:50:03.586Z,16.81
2022-10-06T08:51:02.877Z,16.71
2022-10-06T08:52:02.647Z,16.72
2022-10-06T08:53:02.953Z,16.76
2022-10-06T08:54:02.689Z,16.75
2022-10-06T08:55:02.958Z,16.75
2022-10-06T08:56:02.980Z,16.78
2022-10-06T08:57:03.000Z,16.74
2022-10-06T08:58:02.701Z,16.76
2022-10-06T08:59:03.044Z,16.78
2022-10-06T09:00:03.525Z,16.81
2022-10-06T09:01:02.710Z,16.81
2022-10-06T09:02:02.897Z,16.81
2022-10-06T09:03:02.852Z,16.86
2022-10-06T09:04:03.157Z,16.81
2022-10-06T09:05:03.149Z,16.83
2022-10-06T09:06:03.199Z,16.79
2022-10-06T09:07:04.579Z,16.81
2022-10-06T09:08:03.203Z,16.79
2022-10-06T09:09:03.267Z,16.83
2022-10-06T09:10:03.307Z,16.81
2022-10-06T09:11:03.269Z,16.81
2022-10-06T09:12:03.349Z,16.94
2022-10-06T09:13:03.052Z,16.89
2022-10-06T09:14:03.067Z,16.9
2022-10-06T09:15:03.095Z,16.89
2022-10-06T09:16:03.285Z,16.9
2022-10-06T09:17:03.387Z,16.93
2022-10-06T09:18:03.411Z,16.93
2022-10-06T09:19:18.540Z,16.93
2022-10-06T09:20:03.625Z,16.93
2022-10-06T09:21:03.454Z,16.99
2022-10-06T09:22:03.588Z,16.91
2022-10-06T09:23:03.005Z,16.9
2022-10-06T09:24:03.271Z,16.93
2022-10-06T09:25:03.052Z,16.96
2022-10-06T09:26:03.569Z,16.93
2022-10-06T09:27:03.323Z,17.02
2022-10-06T09:28:03.366Z,16.96
2022-10-06T09:29:03.111Z,17.02
2022-10-06T09:30:04.073Z,17.01
2022-10-06T09:31:03.816Z,16.99
2022-10-06T09:32:03.674Z,17.08
2022-10-06T09:33:03.697Z,17.04
2022-10-06T09:34:03.726Z,17.08
2022-10-06T09:35:03.499Z,16.99
2022-10-06T09:36:03.754Z,17.12
2022-10-06T09:37:06.440Z,17.11
2022-10-06T09:38:09.985Z,17.01
2022-10-06T09:39:03.817Z,17.08
2022-10-06T09:40:04.460Z,17.15
2022-10-06T09:41:03.930Z,17.15
2022-10-06T09:42:03.703Z,17.12
2022-10-06T09:43:03.890Z,17.16
2022-10-06T09:44:03.918Z,17.14
2022-10-06T09:45:03.674Z,17.19
2022-10-06T09:46:04.187Z,17.19
2022-10-06T09:47:03.978Z,17.23
2022-10-06T09:48:03.748Z,17.24
2022-10-06T09:49:03.507Z,17.14
2022-10-06T09:50:04.039Z,17.12
2022-10-06T09:51:04.075Z,17.27
2022-10-06T09:52:03.910Z,17.26
2022-10-06T09:53:03.838Z,17.3
2022-10-06T09:54:03.889Z,17.2
2022-10-06T09:55:04.144Z,17.23
2022-10-06T09:56:04.179Z,17.26
2022-10-06T09:57:04.171Z,17.23
2022-10-06T09:58:04.194Z,17.3
2022-10-06T09:59:04.222Z,17.24
2022-10-06T10:00:04.118Z,17.29
2022-10-06T10:01:04.548Z,17.27
2022-10-06T10:02:04.277Z,17.26
2022-10-06T10:03:04.307Z,17.27
2022-10-06T10:04:24.262Z,17.33
2022-10-06T10:05:04.080Z,17.3
2022-10-06T10:06:04.096Z,17.38
2022-10-06T10:07:04.395Z,17.38
2022-10-06T10:08:04.309Z,17.36
2022-10-06T10:09:04.169Z,17.31
2022-10-06T10:10:04.664Z,17.34
2022-10-06T10:11:04.464Z,17.36
2022-10-06T10:12:04.565Z,17.36
2022-10-06T10:13:04.231Z,17.38
2022-10-06T10:14:04.528Z,17.44
2022-10-06T10:15:04.551Z,17.36
2022-10-06T10:16:04.576Z,17.38
2022-10-06T10:17:04.573Z,17.38
2022-10-06T10:18:04.344Z,17.38
2022-10-06T10:19:04.351Z,17.36
2022-10-06T10:20:05.029Z,17.36
2022-10-06T10:21:04.402Z,17.42
2022-10-06T10:22:04.978Z,17.36
2022-10-06T10:23:04.715Z,17.42
2022-10-06T10:24:04.706Z,17.42
2022-10-06T10:25:04.218Z,17.41
2022-10-06T10:26:04.769Z,17.36
2022-10-06T10:27:04.768Z,17.45
2022-10-06T10:28:04.990Z,17.42
2022-10-06T10:29:04.812Z,17.48
2022-10-06T10:30:05.180Z,17.36
2022-10-06T10:31:04.873Z,17.46
2022-10-06T10:32:04.908Z,17.39
2022-10-06T10:33:04.657Z,17.39
2022-10-06T10:34:27.125Z,17.45
2022-10-06T10:35:05.409Z,17.46
2022-10-06T10:36:04.946Z,17.46
2022-10-06T10:37:04.457Z,17.44
2022-10-06T10:38:04.992Z,17.48
2022-10-06T10:39:05.035Z,17.46
2022-10-06T10:40:04.778Z,17.48
2022-10-06T10:41:05.072Z,17.45
2022-10-06T10:42:05.100Z,17.42
2022-10-06T10:43:05.094Z,17.42
2022-10-06T10:44:08.926Z,17.54
2022-10-06T10:45:05.365Z,17.51
2022-10-06T10:46:04.887Z,17.45
2022-10-06T10:47:05.484Z,17.49
2022-10-06T10:48:05.345Z,17.42
2022-10-06T10:49:05.299Z,17.57
2022-10-06T10:50:05.280Z,17.49
2022-10-06T10:51:05.056Z,17.49
2022-10-06T10:52:05.374Z,17.59
2022-10-06T10:53:05.071Z,17.49
2022-10-06T10:54:05.304Z,17.49
2022-10-06T10:55:05.596Z,17.56
2022-10-06T10:56:05.086Z,17.6
2022-10-06T10:57:05.114Z,17.56
2022-10-06T10:58:05.150Z,17.51
2022-10-06T10:59:05.153Z,17.6
2022-10-06T11:00:05.486Z,17.67
2022-10-06T11:01:05.609Z,17.59
2022-10-06T11:02:05.596Z,17.52
2022-10-06T11:03:05.478Z,17.56
2022-10-06T11:04:05.520Z,17.6
2022-10-06T11:05:06.024Z,17.6
2022-10-06T11:06:05.539Z,17.63
2022-10-06T11:07:05.102Z,17.67
2022-10-06T11:08:05.074Z,17.63
2022-10-06T11:09:05.347Z,17.7
2022-10-06T11:10:05.364Z,17.64
2022-10-06T11:11:05.418Z,17.67
2022-10-06T11:12:05.401Z,17.59
2022-10-06T11:13:05.414Z,17.6
2022-10-06T11:14:05.726Z,17.64
2022-10-06T11:15:05.946Z,17.71
2022-10-06T11:16:05.677Z,17.7
2022-10-06T11:17:05.502Z,17.67
2022-10-06T11:18:05.524Z,17.64
2022-10-06T11:19:05.800Z,17.74
2022-10-06T11:20:05.308Z,17.63
2022-10-06T11:21:05.603Z,17.7
2022-10-06T11:22:05.607Z,17.64
2022-10-06T11:23:05.873Z,17.74
2022-10-06T11:24:05.899Z,17.65
2022-10-06T11:26:05.940Z,17.65
2022-10-06T11:27:05.977Z,17.6
2022-10-06T11:28:05.877Z,17.71
2022-10-06T11:29:06.001Z,17.67
2022-10-06T11:30:06.828Z,17.6
2022-10-06T11:31:05.904Z,17.7
2022-10-06T11:32:05.984Z,17.63
2022-10-06T11:33:05.829Z,17.72
2022-10-06T11:34:05.841Z,17.64
2022-10-06T11:35:05.871Z,17.72
2022-10-06T11:36:05.888Z,17.7
2022-10-06T11:37:06.273Z,17.7
2022-10-06T11:38:05.923Z,17.72
2022-10-06T11:39:06.198Z,17.74
2022-10-06T11:40:06.733Z,17.78
2022-10-06T11:41:12.039Z,17.74
2022-10-06T11:42:06.006Z,17.78
2022-10-06T11:43:06.317Z,17.72
2022-10-06T11:44:06.292Z,17.83
2022-10-06T11:45:06.383Z,17.85
2022-10-06T11:46:06.617Z,17.83
2022-10-06T11:47:06.367Z,17.86
2022-10-06T11:48:06.169Z,17.86
2022-10-06T11:49:06.415Z,17.9
2022-10-06T11:50:06.422Z,17.9
2022-10-06T11:51:06.453Z,17.94
2022-10-06T11:52:11.031Z,17.98
2022-10-06T11:53:06.492Z,18.01
2022-10-06T11:54:06.238Z,18.05
2022-10-06T11:55:07.062Z,18.03
2022-10-06T11:56:06.290Z,18.03
2022-10-06T11:57:06.319Z,18.01
2022-10-06T11:58:43.393Z,18.03
2022-10-06T11:59:06.607Z,18.08
2022-10-06T12:00:06.671Z,18.1
2022-10-06T12:01:06.398Z,18.05
2022-10-06T12:02:07.230Z,18.18
2022-10-06T12:03:07.058Z,18.19
2022-10-06T12:04:06.519Z,18.15
2022-10-06T12:05:28.879Z,18.22
2022-10-06T12:06:06.491Z,18.15
2022-10-06T12:07:06.771Z,18.16
2022-10-06T12:08:06.540Z,18.22
2022-10-06T12:09:06.828Z,18.23
2022-10-06T12:10:06.606Z,18.19
2022-10-06T12:11:06.860Z,18.2
2022-10-06T12:12:06.613Z,18.28
2022-10-06T12:14:12.249Z,18.2
2022-10-06T12:17:24.782Z,18.35
2022-10-06T12:18:23.349Z,18.4
2022-10-06T12:19:23.417Z,18.43
2022-10-06T12:20:23.664Z,18.44
2022-10-06T12:21:23.670Z,18.41
2022-10-06T12:22:23.437Z,18.45
2022-10-06T12:23:23.715Z,18.26
2022-10-06T12:24:23.569Z,18.34
2022-10-06T12:25:23.569Z,18.34
2022-10-06T12:26:23.772Z,18.38
2022-10-06T12:27:28.671Z,18.37
2022-10-06T12:28:23.975Z,18.41
2022-10-06T12:29:23.831Z,18.4
2022-10-06T12:30:23.376Z,18.34
2022-10-06T12:31:24.112Z,18.37
2022-10-06T12:32:23.845Z,18.45
2022-10-06T12:33:23.979Z,18.41
2022-10-06T12:34:23.681Z,18.41
2022-10-06T12:35:23.740Z,18.49
2022-10-06T12:36:23.458Z,18.47
2022-10-06T12:37:23.741Z,18.43
2022-10-06T12:38:24.013Z,18.52
2022-10-06T12:39:23.542Z,18.58
2022-10-06T12:40:24.070Z,18.5
2022-10-06T12:41:23.825Z,18.56
2022-10-06T12:42:23.847Z,18.59
2022-10-06T12:43:23.894Z,18.63
2022-10-06T12:44:23.884Z,18.63
2022-10-06T12:45:23.907Z,18.6
2022-10-06T12:46:24.053Z,18.59
2022-10-06T12:47:23.945Z,18.68
2022-10-06T12:48:23.967Z,18.63
2022-10-06T12:49:24.387Z,18.68
2022-10-06T12:50:24.268Z,18.68
2022-10-06T12:51:24.326Z,18.73
2022-10-06T12:52:24.302Z,18.77
2022-10-06T12:53:24.067Z,18.8
2022-10-06T12:54:24.282Z,18.77
2022-10-06T12:55:24.114Z,18.73
2022-10-06T12:56:24.380Z,18.74
2022-10-06T12:57:24.148Z,18.77
2022-10-06T12:58:24.435Z,18.83
2022-10-06T12:59:24.201Z,18.78
2022-10-06T13:01:24.670Z,18.93